createdAt,value
2023-04-27T04:51:51.023Z,4.72
2023-04-27T04:55:20.827Z,6.65
2023-04-27T04:58:07.322Z,6.40
2023-04-27T05:01:10.819Z,6.68
2023-04-27T05:04:15.600Z,6.78
2023-04-27T05:07:08.410Z,6.22
2023-04-27T05:09:48.518Z,6.68
2023-04-27T05:12:22.326Z,7.15
2023-04-27T05:15:31.955Z,7.03
2023-04-27T05:18:18.088Z,6.35
2023-04-27T05:21:09.355Z,5.68
2023-04-27T05:24:14.250Z,6.28
2023-04-27T05:26:49.559Z,5.97
2023-04-27T05:29:42.239Z,5.95
2023-04-27T05:32:16.090Z,5.57
2023-04-27T05:35:08.524Z,5.78
2023-04-27T05:37:42.337Z,6.20
2023-04-27T05:40:52.804Z,6.15
2023-04-27T05:44:04.576Z,5.68
2023-04-27T05:46:57.066Z,5.65
2023-04-27T05:50:07.097Z,5.35
2023-04-27T05:53:06.153Z,6.90
2023-04-27T05:56:04.732Z,5.55
2023-04-27T05:58:44.286Z,6.57
2023-04-27T06:01:31.490Z,7.57
2023-04-27T06:04:41.084Z,5.75
2023-04-27T06:07:27.370Z,6.68
2023-04-27T06:10:37.853Z,5.50
2023-04-27T06:13:24.174Z,5.90
2023-04-27T06:16:46.782Z,6.68
2023-04-27T06:19:52.047Z,6.75
2023-04-27T06:22:57.833Z,5.78
2023-04-27T06:25:44.036Z,6.47
2023-04-27T06:28:23.793Z,6.00
2023-04-27T06:31:22.738Z,6.10
2023-04-27T06:34:08.911Z,6.05
2023-04-27T06:37:08.530Z,6.10
2023-04-27T06:39:53.645Z,6.25
2023-04-27T06:42:39.174Z,6.53
2023-04-27T06:45:13.142Z,7.68
2023-04-27T06:48:10.814Z,6.15
2023-04-27T06:51:02.190Z,5.80
2023-04-27T06:54:01.803Z,5.75
2023-04-27T06:57:04.803Z,6.07
2023-04-27T07:00:08.863Z,6.25
2023-04-27T07:02:42.567Z,6.43
2023-04-27T07:05:40.728Z,6.18
2023-04-27T07:08:38.474Z,6.40
2023-04-27T07:11:07.733Z,6.78
2023-04-27T07:13:41.357Z,7.40
2023-04-27T07:16:40.128Z,7.70
2023-04-27T07:19:31.795Z,6.72
2023-04-27T07:22:24.331Z,7.00
2023-04-27T07:24:57.975Z,6.97
2023-04-27T07:27:39.791Z,7.32
2023-04-27T07:30:10.022Z,6.53
2023-04-27T07:32:56.655Z,6.57
2023-04-27T07:35:43.307Z,7.18
2023-04-27T07:38:23.357Z,6.93
2023-04-27T07:41:30.681Z,6.68
2023-04-27T07:44:12.253Z,7.15
2023-04-27T07:47:10.094Z,6.88
2023-04-27T07:49:49.808Z,7.00
2023-04-27T07:53:12.708Z,7.40
2023-04-27T07:55:58.711Z,6.70
2023-04-27T07:58:56.329Z,7.05
2023-04-27T08:01:37.804Z,7.00
2023-04-27T08:04:29.848Z,8.30
2023-04-27T08:07:46.963Z,8.15
2023-04-27T08:10:51.297Z,8.35
2023-04-27T08:13:31.026Z,7.65
2023-04-27T08:16:53.054Z,8.13
2023-04-27T08:20:16.217Z,9.05
2023-04-27T08:23:21.553Z,8.02
2023-04-27T08:26:26.407Z,7.63
2023-04-27T08:29:27.115Z,8.98
2023-04-27T08:33:03.962Z,8.00
2023-04-27T08:35:50.570Z,8.65
2023-04-27T08:38:44.610Z,9.63
2023-04-27T08:41:27.331Z,9.40
2023-04-27T08:44:07.059Z,9.23
2023-04-27T08:47:11.705Z,9.07
2023-04-27T08:49:45.330Z,7.93
2023-04-27T08:52:25.091Z,8.73
2023-04-27T08:55:13.311Z,8.38
2023-04-27T08:57:48.800Z,8.75
2023-04-27T09:01:03.761Z,8.40
2023-04-27T09:04:07.224Z,8.45
2023-04-27T09:07:43.380Z,7.85
2023-04-27T09:10:36.998Z,7.60
2023-04-27T09:13:48.607Z,8.77
2023-04-27T09:16:34.963Z,8.50
2023-04-27T09:19:37.732Z,8.07
2023-04-27T09:22:33.525Z,7.20
2023-04-27T09:25:19.773Z,6.80
2023-04-27T09:28:07.171Z,7.35
2023-04-27T09:31:17.422Z,7.65
2023-04-27T09:34:28.180Z,7.43
2023-04-27T09:37:14.300Z,6.88
2023-04-27T09:39:55.115Z,7.13
2023-04-27T09:42:29.229Z,7.72
2023-04-27T09:44:59.438Z,8.82
2023-04-27T09:47:51.170Z,8.27
2023-04-27T09:50:19.235Z,8.02
2023-04-27T09:53:33.281Z,8.93
2023-04-27T09:56:33.339Z,8.20
2023-04-27T09:59:42.691Z,8.70
2023-04-27T10:02:53.183Z,8.73
2023-04-27T10:05:49.852Z,7.88
2023-04-27T10:08:36.432Z,7.50
2023-04-27T10:11:52.820Z,7.65
2023-04-27T10:14:49.871Z,6.93
2023-04-27T10:17:43.525Z,8.27
2023-04-27T10:20:30.792Z,7.53
2023-04-27T10:23:30.084Z,7.20
2023-04-27T10:26:21.180Z,7.32
2023-04-27T10:29:31.817Z,7.82
2023-04-27T10:32:23.273Z,8.13
2023-04-27T10:35:07.440Z,7.00
2023-04-27T10:37:53.219Z,7.22
2023-04-27T10:40:58.022Z,7.90
2023-04-27T10:43:37.834Z,9.70
2023-04-27T10:46:24.432Z,9.85
2023-04-27T10:49:23.503Z,8.75
2023-04-27T10:52:17.191Z,9.63
2023-04-27T10:55:20.740Z,9.27
2023-04-27T10:58:02.322Z,9.90
2023-04-27T11:00:48.276Z,8.70
2023-04-27T11:03:49.008Z,9.45
2023-04-27T11:06:41.993Z,8.98
2023-04-27T11:09:49.723Z,8.75
2023-04-27T11:12:47.546Z,9.48
2023-04-27T11:15:48.859Z,9.25
2023-04-27T11:18:33.603Z,9.48
2023-04-27T11:21:38.467Z,10.05
2023-04-27T11:25:08.039Z,9.63
2023-04-27T11:28:17.725Z,8.73
2023-04-27T11:31:09.772Z,9.73
2023-04-27T11:33:56.068Z,9.57
2023-04-27T11:36:36.076Z,10.03
2023-04-27T11:39:28.525Z,10.23
2023-04-27T11:42:43.423Z,9.95
2023-04-27T11:45:30.134Z,8.50
2023-04-27T11:48:24.362Z,10.90
2023-04-27T11:51:29.922Z,9.38
2023-04-27T11:54:08.316Z,10.43
2023-04-27T11:56:49.384Z,10.00
2023-04-27T11:59:30.765Z,9.05
2023-04-27T12:02:35.699Z,9.63
2023-04-27T12:05:12.463Z,9.70
2023-04-27T12:08:16.660Z,9.15
2023-04-27T12:11:15.070Z,10.68
2023-04-27T12:14:32.672Z,9.05
2023-04-27T12:17:12.737Z,9.30
2023-04-27T12:19:52.665Z,9.77
2023-04-27T12:22:45.495Z,10.07
2023-04-27T12:25:25.403Z,10.32
2023-04-27T12:28:23.448Z,10.27
2023-04-27T12:31:18.785Z,8.77
2023-04-27T12:33:46.893Z,9.25
2023-04-27T12:36:27.123Z,9.18
2023-04-27T12:39:15.735Z,9.15
2023-04-27T12:42:02.338Z,8.93
2023-04-27T12:44:42.305Z,9.77
2023-04-27T12:47:46.357Z,7.93
2023-04-27T12:50:30.117Z,9.77
2023-04-27T12:53:15.433Z,9.13
2023-04-27T12:56:04.246Z,10.07
2023-04-27T12:58:37.918Z,9.65
2023-04-27T13:01:25.433Z,9.98
2023-04-27T13:04:25.139Z,9.35
2023-04-27T13:07:16.757Z,10.00
2023-04-27T13:10:21.051Z,10.13
2023-04-27T13:12:55.613Z,9.23
2023-04-27T13:15:42.084Z,9.32
2023-04-27T13:18:52.437Z,9.82
2023-04-27T13:21:39.673Z,13.27
2023-04-27T13:24:19.330Z,10.60
2023-04-27T13:26:52.794Z,11.18
2023-04-27T13:29:51.264Z,10.57
2023-04-27T13:32:25.070Z,9.13
2023-04-27T13:35:23.871Z,9.43
2023-04-27T13:38:11.448Z,10.82
2023-04-27T13:40:51.521Z,11.45
2023-04-27T13:43:19.353Z,11.50
2023-04-27T13:45:55.040Z,10.60
2023-04-27T13:48:40.775Z,10.32
2023-04-27T13:51:50.642Z,9.45
2023-04-27T13:54:51.116Z,10.00
2023-04-27T13:57:37.528Z,10.40
2023-04-27T14:00:42.571Z,9.90
2023-04-27T14:06:08.587Z,9.60
2023-04-27T14:08:55.676Z,9.98
2023-04-27T14:11:56.469Z,10.13
2023-04-27T14:14:31.060Z,10.18
2023-04-27T14:17:29.399Z,11.43
2023-04-27T14:20:15.828Z,9.90
2023-04-27T14:23:07.527Z,10.90
2023-04-27T14:25:59.110Z,10.27
2023-04-27T14:28:58.743Z,9.80
2023-04-27T14:31:45.511Z,10.38
2023-04-27T14:34:31.807Z,9.23
2023-04-27T14:37:29.336Z,9.93
2023-04-27T14:40:15.130Z,10.68
2023-04-27T14:42:48.802Z,10.18
2023-04-27T14:46:19.813Z,11.13
2023-04-27T14:49:18.561Z,10.65
2023-04-27T14:52:34.716Z,11.30
2023-04-27T14:55:20.432Z,10.45
2023-04-27T14:57:54.375Z,12.00
2023-04-27T15:00:52.717Z,10.90
2023-04-27T15:04:05.061Z,11.20
2023-04-27T15:06:51.807Z,10.20
2023-04-27T15:09:44.037Z,9.90
2023-04-27T15:12:59.508Z,10.27
2023-04-27T15:15:27.329Z,11.18
2023-04-27T15:18:19.277Z,10.23
2023-04-27T15:21:13.582Z,10.27
2023-04-27T15:23:47.251Z,9.88
2023-04-27T15:26:33.434Z,10.55
2023-04-27T15:29:30.768Z,10.40
2023-04-27T15:32:30.233Z,11.32
2023-04-27T15:35:23.084Z,10.27
2023-04-27T15:38:15.435Z,11.57
2023-04-27T15:40:49.303Z,10.15
2023-04-27T15:43:23.426Z,9.38
2023-04-27T15:46:10.200Z,10.25
2023-04-27T15:48:43.827Z,10.68
2023-04-27T15:51:23.762Z,10.10
2023-04-27T15:53:58.578Z,10.80
2023-04-27T15:56:49.857Z,10.32
2023-04-27T15:59:48.316Z,10.63
2023-04-27T16:02:21.909Z,10.25
2023-04-27T16:04:50.491Z,11.05
2023-04-27T16:07:24.526Z,10.73
2023-04-27T16:09:53.972Z,10.10
2023-04-27T16:12:46.480Z,10.13
2023-04-27T16:15:38.287Z,10.55
2023-04-27T16:18:30.246Z,10.98
2023-04-27T16:21:22.294Z,11.07
2023-04-27T16:24:20.417Z,9.57
2023-04-27T16:27:20.765Z,10.43
2023-04-27T16:30:00.384Z,11.23
2023-04-27T16:32:46.607Z,10.88
2023-04-27T16:35:20.037Z,10.70
2023-04-27T16:38:06.016Z,11.70
2023-04-27T16:40:33.942Z,10.55
2023-04-27T16:43:28.008Z,11.00
2023-04-27T16:46:14.768Z,11.65
2023-04-27T16:48:54.691Z,10.80
2023-04-27T16:51:34.850Z,11.30
2023-04-27T16:54:16.430Z,11.13
2023-04-27T16:57:21.197Z,10.68
2023-04-27T17:00:01.954Z,11.27
2023-04-27T17:02:29.915Z,10.88
2023-04-27T17:05:10.257Z,10.98
2023-04-27T17:08:08.461Z,10.95
2023-04-27T17:10:54.457Z,10.93
2023-04-27T17:13:58.598Z,12.07
2023-04-27T17:17:16.479Z,11.13
2023-04-27T17:20:02.504Z,10.50
2023-04-27T17:22:48.034Z,10.75
2023-04-27T17:25:21.999Z,11.98
2023-04-27T17:28:21.680Z,11.50
2023-04-27T17:30:49.545Z,12.70
2023-04-27T17:33:49.199Z,10.13
2023-04-27T17:36:17.018Z,10.68
2023-04-27T17:38:56.746Z,10.98
2023-04-27T17:42:13.159Z,10.65
2023-04-27T17:44:53.080Z,12.18
2023-04-27T17:47:33.724Z,11.77
2023-04-27T17:50:41.000Z,13.52
2023-04-27T17:53:33.426Z,14.75
2023-04-27T17:56:19.230Z,15.77
2023-04-27T17:59:04.801Z,14.38
2023-04-27T18:01:57.301Z,12.68
2023-04-27T18:04:36.861Z,13.13
2023-04-27T18:07:06.283Z,11.20
2023-04-27T18:12:49.710Z,9.93
2023-04-27T18:15:41.436Z,10.05
2023-04-27T18:18:39.349Z,11.00
2023-04-27T18:21:26.735Z,9.57
2023-04-27T18:23:55.966Z,9.65
2023-04-27T18:26:35.526Z,10.65
2023-04-27T18:29:21.851Z,10.10
2023-04-27T18:32:08.188Z,9.95
2023-04-27T18:34:48.459Z,9.20
2023-04-27T18:37:41.221Z,9.48
2023-04-27T18:40:28.862Z,9.23
2023-04-27T18:43:08.632Z,9.32
2023-04-27T18:45:42.477Z,8.45
2023-04-27T18:48:33.965Z,9.18
2023-04-27T18:51:26.314Z,8.80
2023-04-27T18:53:59.824Z,9.77
2023-04-27T18:57:11.595Z,9.48
2023-04-27T19:00:05.405Z,9.88
2023-04-27T19:02:58.138Z,9.90
2023-04-27T19:05:26.121Z,9.88
2023-04-27T19:08:24.173Z,9.30
2023-04-27T19:11:03.685Z,9.18
2023-04-27T19:13:51.412Z,9.25
2023-04-27T19:16:31.119Z,9.63
2023-04-27T19:19:23.379Z,9.10
2023-04-27T19:22:26.565Z,8.50
2023-04-27T19:25:13.662Z,9.80
2023-04-27T19:28:07.002Z,8.60
2023-04-27T19:31:00.928Z,8.50
2023-04-27T19:34:18.345Z,8.70
2023-04-27T19:37:10.717Z,9.27
2023-04-27T19:40:08.654Z,9.45
2023-04-27T19:43:07.125Z,9.23
2023-04-27T19:46:26.662Z,9.38
2023-04-27T19:49:00.982Z,9.02
2023-04-27T19:52:42.088Z,9.82
2023-04-27T19:56:23.924Z,8.98
2023-04-27T20:00:05.421Z,8.43
2023-04-27T20:03:53.132Z,9.38
2023-04-27T20:07:35.302Z,8.10
2023-04-27T20:11:16.731Z,8.73
2023-04-27T20:15:10.020Z,9.07
2023-04-27T20:18:57.389Z,8.98
2023-04-27T20:22:38.723Z,8.00
2023-04-27T20:26:26.168Z,8.38
2023-04-27T20:30:07.762Z,8.30
2023-04-27T20:33:49.015Z,8.70
2023-04-27T20:37:36.201Z,7.78
2023-04-27T20:41:24.173Z,8.43
2023-04-27T20:45:05.828Z,7.80
2023-04-27T20:48:53.221Z,7.63
2023-04-27T20:57:04.657Z,7.45
2023-04-27T21:00:46.249Z,5.95
2023-04-27T21:04:33.637Z,6.40
2023-04-27T21:08:33.413Z,7.32
2023-04-27T21:16:32.515Z,7.18
2023-04-27T21:20:13.947Z,6.85
2023-04-27T21:24:13.933Z,7.32
2023-04-27T21:27:55.430Z,7.53
2023-04-27T21:31:49.056Z,7.13
2023-04-27T21:35:30.588Z,7.03
2023-04-27T21:39:11.921Z,7.20
2023-04-27T21:42:59.549Z,6.88
2023-04-27T21:46:47.012Z,8.07
2023-04-27T21:50:11.861Z,7.32
2023-04-27T21:52:51.407Z,6.82
2023-04-27T21:55:37.331Z,7.18
2023-04-27T21:58:17.113Z,7.40
2023-04-27T22:01:20.752Z,7.03
2023-04-27T22:04:00.965Z,7.10
2023-04-27T22:06:30.938Z,7.45
2023-04-27T22:09:35.309Z,7.55
2023-04-27T22:12:39.311Z,6.68
2023-04-27T22:15:32.173Z,7.15
2023-04-27T22:18:41.918Z,7.20
2023-04-27T22:21:40.277Z,6.30
2023-04-27T22:24:51.534Z,6.50
2023-04-27T22:27:54.671Z,6.80
2023-04-27T22:30:34.368Z,6.50
2023-04-27T22:33:03.001Z,6.70
2023-04-27T22:35:48.459Z,6.55
2023-04-27T22:38:16.685Z,6.40
2023-04-27T22:41:09.948Z,6.10
2023-04-27T22:44:01.301Z,6.07
2023-04-27T22:46:47.536Z,6.43
2023-04-27T22:49:39.588Z,6.40
2023-04-27T22:52:19.481Z,6.80
2023-04-27T22:54:47.334Z,6.65
2023-04-27T22:57:53.977Z,6.82
2023-04-27T23:00:46.278Z,6.78
2023-04-27T23:03:50.583Z,6.50
2023-04-27T23:06:48.672Z,7.47
2023-04-27T23:09:39.885Z,7.45
2023-04-27T23:12:38.804Z,6.63
2023-04-27T23:15:32.695Z,8.07
2023-04-27T23:18:30.856Z,7.30
2023-04-27T23:21:22.412Z,7.28
2023-04-27T23:24:26.135Z,7.28
2023-04-27T23:27:00.140Z,7.82
2023-04-27T23:29:40.184Z,7.78
2023-04-27T23:32:28.311Z,7.82
2023-04-27T23:35:07.724Z,7.82
2023-04-27T23:37:59.303Z,7.72
2023-04-27T23:40:45.580Z,7.68
2023-04-27T23:43:37.999Z,8.13
2023-04-27T23:46:42.278Z,8.82
2023-04-27T23:49:29.286Z,7.25
2023-04-27T23:52:27.189Z,7.95
2023-04-27T23:55:25.824Z,7.93
2023-04-27T23:58:35.436Z,8.75
